sensor_id;sensor_type;location;lat;lon;timestamp;P1;durP1;ratioP1;P2;durP2;ratioP2
53411;SDS011;39307;52.870;13.660;2024-01-15T00:02:11;2.40;;;1.40;;
53411;SDS011;39307;52.870;13.660;2024-01-15T00:04:39;2.53;;;1.57;;
53411;SDS011;39307;52.870;13.660;2024-01-15T00:07:06;2.35;;;1.60;;
53411;SDS011;39307;52.870;13.660;2024-01-15T00:09:34;2.05;;;1.50;;
53411;SDS011;39307;52.870;13.660;2024-01-15T00:12:01;2.70;;;1.80;;
53411;SDS011;39307;52.870;13.660;2024-01-15T00:14:28;3.03;;;1.80;;
53411;SDS011;39307;52.870;13.660;2024-01-15T00:16:55;2.58;;;1.70;;
53411;SDS011;39307;52.870;13.660;2024-01-15T00:19:21;3.05;;;1.90;;
53411;SDS011;39307;52.870;13.660;2024-01-15T00:21:48;3.03;;;1.98;;
53411;SDS011;39307;52.870;13.660;2024-01-15T00:24:15;2.80;;;1.80;;
53411;SDS011;39307;52.870;13.660;2024-01-15T00:26:42;2.88;;;1.90;;
53411;SDS011;39307;52.870;13.660;2024-01-15T00:29:09;3.20;;;2.00;;
53411;SDS011;39307;52.870;13.660;2024-01-15T00:31:36;3.63;;;2.17;;
53411;SDS011;39307;52.870;13.660;2024-01-15T00:34:03;3.03;;;2.00;;
53411;SDS011;39307;52.870;13.660;2024-01-15T00:36:30;3.13;;;2.05;;
53411;SDS011;39307;52.870;13.660;2024-01-15T00:38:57;2.83;;;1.80;;
53411;SDS011;39307;52.870;13.660;2024-01-15T00:41:23;3.15;;;1.90;;
53411;SDS011;39307;52.870;13.660;2024-01-15T00:43:50;2.65;;;1.88;;
53411;SDS011;39307;52.870;13.660;2024-01-15T00:46:17;2.93;;;1.93;;
53411;SDS011;39307;52.870;13.660;2024-01-15T00:48:44;3.38;;;2.15;;
53411;SDS011;39307;52.870;13.660;2024-01-15T00:51:11;3.55;;;2.10;;
53411;SDS011;39307;52.870;13.660;2024-01-15T00:53:37;3.10;;;2.05;;
53411;SDS011;39307;52.870;13.660;2024-01-15T00:56:08;3.53;;;2.37;;
53411;SDS011;39307;52.870;13.660;2024-01-15T00:58:35;3.22;;;2.10;;
53411;SDS011;39307;52.870;13.660;2024-01-15T01:01:01;3.60;;;2.22;;
53411;SDS011;39307;52.870;13.660;2024-01-15T01:03:28;3.30;;;2.05;;
53411;SDS011;39307;52.870;13.660;2024-01-15T01:05:56;2.88;;;2.00;;
53411;SDS011;39307;52.870;13.660;2024-01-15T01:08:23;3.45;;;2.30;;
53411;SDS011;39307;52.870;13.660;2024-01-15T01:10:49;3.13;;;2.10;;
53411;SDS011;39307;52.870;13.660;2024-01-15T01:13:16;3.40;;;2.40;;
53411;SDS011;39307;52.870;13.660;2024-01-15T01:15:43;3.30;;;2.25;;
53411;SDS011;39307;52.870;13.660;2024-01-15T01:18:10;4.30;;;2.80;;
53411;SDS011;39307;52.870;13.660;2024-01-15T01:20:37;3.67;;;2.40;;
53411;SDS011;39307;52.870;13.660;2024-01-15T01:23:04;4.00;;;2.50;;
53411;SDS011;39307;52.870;13.660;2024-01-15T01:25:31;3.25;;;2.00;;
53411;SDS011;39307;52.870;13.660;2024-01-15T01:27:57;4.07;;;2.70;;
53411;SDS011;39307;52.870;13.660;2024-01-15T01:30:24;3.83;;;2.50;;
53411;SDS011;39307;52.870;13.660;2024-01-15T01:32:51;4.32;;;2.63;;
53411;SDS011;39307;52.870;13.660;2024-01-15T01:35:18;3.57;;;2.27;;
53411;SDS011;39307;52.870;13.660;2024-01-15T01:37:45;4.13;;;2.60;;
53411;SDS011;39307;52.870;13.660;2024-01-15T01:40:12;3.53;;;2.35;;
53411;SDS011;39307;52.870;13.660;2024-01-15T01:42:39;3.67;;;2.30;;
53411;SDS011;39307;52.870;13.660;2024-01-15T01:45:06;3.90;;;2.40;;
53411;SDS011;39307;52.870;13.660;2024-01-15T01:47:33;3.83;;;2.60;;
53411;SDS011;39307;52.870;13.660;2024-01-15T01:50:01;3.67;;;2.45;;
53411;SDS011;39307;52.870;13.660;2024-01-15T01:52:28;3.80;;;2.33;;
53411;SDS011;39307;52.870;13.660;2024-01-15T01:54:56;3.90;;;2.55;;
53411;SDS011;39307;52.870;13.660;2024-01-15T01:57:24;4.97;;;2.80;;
53411;SDS011;39307;52.870;13.660;2024-01-15T01:59:52;3.15;;;2.20;;
53411;SDS011;39307;52.870;13.660;2024-01-15T02:02:19;4.30;;;2.77;;
53411;SDS011;39307;52.870;13.660;2024-01-15T02:04:48;3.78;;;2.55;;
53411;SDS011;39307;52.870;13.660;2024-01-15T02:07:15;3.67;;;2.40;;
53411;SDS011;39307;52.870;13.660;2024-01-15T02:09:44;4.18;;;2.60;;
53411;SDS011;39307;52.870;13.660;2024-01-15T02:12:11;3.83;;;2.33;;
53411;SDS011;39307;52.870;13.660;2024-01-15T02:14:38;3.97;;;2.63;;
53411;SDS011;39307;52.870;13.660;2024-01-15T02:17:05;4.18;;;2.65;;
53411;SDS011;39307;52.870;13.660;2024-01-15T02:19:32;4.20;;;2.78;;
53411;SDS011;39307;52.870;13.660;2024-01-15T02:21:59;3.75;;;2.42;;
53411;SDS011;39307;52.870;13.660;2024-01-15T02:24:26;3.28;;;2.22;;
53411;SDS011;39307;52.870;13.660;2024-01-15T02:26:53;3.80;;;2.67;;
53411;SDS011;39307;52.870;13.660;2024-01-15T02:29:20;3.45;;;2.30;;
53411;SDS011;39307;52.870;13.660;2024-01-15T02:31:47;2.47;;;1.65;;
53411;SDS011;39307;52.870;13.660;2024-01-15T02:34:14;2.58;;;1.73;;
53411;SDS011;39307;52.870;13.660;2024-01-15T02:36:40;2.88;;;1.80;;
53411;SDS011;39307;52.870;13.660;2024-01-15T02:39:07;3.00;;;1.75;;
53411;SDS011;39307;52.870;13.660;2024-01-15T02:41:34;2.95;;;1.90;;
53411;SDS011;39307;52.870;13.660;2024-01-15T02:44:01;3.20;;;1.90;;
53411;SDS011;39307;52.870;13.660;2024-01-15T02:46:28;3.63;;;2.22;;
53411;SDS011;39307;52.870;13.660;2024-01-15T02:48:55;3.20;;;1.98;;
53411;SDS011;39307;52.870;13.660;2024-01-15T02:51:21;3.50;;;2.20;;
53411;SDS011;39307;52.870;13.660;2024-01-15T02:53:49;3.65;;;2.25;;
53411;SDS011;39307;52.870;13.660;2024-01-15T02:56:16;3.40;;;2.33;;
53411;SDS011;39307;52.870;13.660;2024-01-15T02:58:43;3.40;;;2.10;;
53411;SDS011;39307;52.870;13.660;2024-01-15T03:01:09;3.85;;;2.00;;
53411;SDS011;39307;52.870;13.660;2024-01-15T03:03:36;3.35;;;2.30;;
53411;SDS011;39307;52.870;13.660;2024-01-15T03:06:05;3.60;;;2.15;;
53411;SDS011;39307;52.870;13.660;2024-01-15T03:08:32;3.27;;;2.00;;
53411;SDS011;39307;52.870;13.660;2024-01-15T03:10:59;3.83;;;2.17;;
53411;SDS011;39307;52.870;13.660;2024-01-15T03:13:26;3.30;;;2.15;;
53411;SDS011;39307;52.870;13.660;2024-01-15T03:15:53;3.33;;;2.10;;
53411;SDS011;39307;52.870;13.660;2024-01-15T03:18:20;3.00;;;2.10;;
53411;SDS011;39307;52.870;13.660;2024-01-15T03:20:47;3.45;;;2.10;;
53411;SDS011;39307;52.870;13.660;2024-01-15T03:23:14;3.53;;;2.10;;
53411;SDS011;39307;52.870;13.660;2024-01-15T03:25:41;3.35;;;2.13;;
53411;SDS011;39307;52.870;13.660;2024-01-15T03:28:08;3.25;;;2.10;;
53411;SDS011;39307;52.870;13.660;2024-01-15T03:30:35;2.95;;;1.90;;
53411;SDS011;39307;52.870;13.660;2024-01-15T03:33:02;3.38;;;2.10;;
53411;SDS011;39307;52.870;13.660;2024-01-15T03:35:29;3.28;;;2.10;;
53411;SDS011;39307;52.870;13.660;2024-01-15T03:37:56;3.80;;;2.40;;
53411;SDS011;39307;52.870;13.660;2024-01-15T03:40:23;3.50;;;2.10;;
53411;SDS011;39307;52.870;13.660;2024-01-15T03:42:50;3.85;;;2.40;;
53411;SDS011;39307;52.870;13.660;2024-01-15T03:45:18;3.38;;;2.17;;
53411;SDS011;39307;52.870;13.660;2024-01-15T03:47:45;3.42;;;2.10;;
53411;SDS011;39307;52.870;13.660;2024-01-15T03:50:12;3.45;;;2.05;;
53411;SDS011;39307;52.870;13.660;2024-01-15T03:52:39;3.35;;;2.20;;
53411;SDS011;39307;52.870;13.660;2024-01-15T03:55:06;3.80;;;2.30;;
53411;SDS011;39307;52.870;13.660;2024-01-15T03:57:33;3.33;;;2.20;;
53411;SDS011;39307;52.870;13.660;2024-01-15T04:00:00;3.30;;;2.17;;
53411;SDS011;39307;52.870;13.660;2024-01-15T04:02:27;3.33;;;1.90;;
53411;SDS011;39307;52.870;13.660;2024-01-15T04:04:54;3.72;;;2.30;;
53411;SDS011;39307;52.870;13.660;2024-01-15T04:07:21;3.95;;;2.25;;
53411;SDS011;39307;52.870;13.660;2024-01-15T04:09:48;3.80;;;2.13;;
53411;SDS011;39307;52.870;13.660;2024-01-15T04:12:15;3.33;;;1.90;;
53411;SDS011;39307;52.870;13.660;2024-01-15T04:14:41;4.32;;;2.17;;
53411;SDS011;39307;52.870;13.660;2024-01-15T04:17:08;3.65;;;1.95;;
53411;SDS011;39307;52.870;13.660;2024-01-15T04:19:35;3.50;;;1.93;;
53411;SDS011;39307;52.870;13.660;2024-01-15T04:22:02;3.72;;;2.20;;
53411;SDS011;39307;52.870;13.660;2024-01-15T04:24:31;3.13;;;2.00;;
53411;SDS011;39307;52.870;13.660;2024-01-15T04:26:58;3.57;;;2.00;;
53411;SDS011;39307;52.870;13.660;2024-01-15T04:29:25;3.65;;;2.30;;
53411;SDS011;39307;52.870;13.660;2024-01-15T04:31:52;4.25;;;2.15;;
53411;SDS011;39307;52.870;13.660;2024-01-15T04:34:19;4.20;;;2.37;;
53411;SDS011;39307;52.870;13.660;2024-01-15T04:36:46;3.45;;;2.20;;
53411;SDS011;39307;52.870;13.660;2024-01-15T04:39:13;4.57;;;2.13;;
53411;SDS011;39307;52.870;13.660;2024-01-15T04:41:40;3.65;;;2.10;;
53411;SDS011;39307;52.870;13.660;2024-01-15T04:44:07;3.50;;;2.10;;
53411;SDS011;39307;52.870;13.660;2024-01-15T04:46:34;3.90;;;2.28;;
53411;SDS011;39307;52.870;13.660;2024-01-15T04:49:00;3.40;;;2.03;;
53411;SDS011;39307;52.870;13.660;2024-01-15T04:51:27;3.40;;;1.90;;
53411;SDS011;39307;52.870;13.660;2024-01-15T04:53:54;3.17;;;1.75;;
53411;SDS011;39307;52.870;13.660;2024-01-15T04:56:21;2.65;;;1.30;;
53411;SDS011;39307;52.870;13.660;2024-01-15T04:58:48;2.95;;;1.50;;
53411;SDS011;39307;52.870;13.660;2024-01-15T05:01:15;2.88;;;1.52;;
53411;SDS011;39307;52.870;13.660;2024-01-15T05:03:42;2.70;;;1.63;;
53411;SDS011;39307;52.870;13.660;2024-01-15T05:06:09;3.05;;;1.60;;
53411;SDS011;39307;52.870;13.660;2024-01-15T05:08:36;3.50;;;1.90;;
53411;SDS011;39307;52.870;13.660;2024-01-15T05:11:03;2.97;;;1.65;;
53411;SDS011;39307;52.870;13.660;2024-01-15T05:13:30;2.30;;;1.50;;
53411;SDS011;39307;52.870;13.660;2024-01-15T05:15:57;3.50;;;1.73;;
53411;SDS011;39307;52.870;13.660;2024-01-15T05:18:23;2.80;;;1.60;;
53411;SDS011;39307;52.870;13.660;2024-01-15T05:20:50;3.40;;;1.83;;
53411;SDS011;39307;52.870;13.660;2024-01-15T05:23:17;3.08;;;1.65;;
53411;SDS011;39307;52.870;13.660;2024-01-15T05:25:44;3.17;;;1.70;;
53411;SDS011;39307;52.870;13.660;2024-01-15T05:28:11;3.22;;;1.83;;
53411;SDS011;39307;52.870;13.660;2024-01-15T05:30:39;3.65;;;1.80;;
53411;SDS011;39307;52.870;13.660;2024-01-15T05:33:05;3.90;;;1.77;;
53411;SDS011;39307;52.870;13.660;2024-01-15T05:35:32;3.47;;;1.75;;
53411;SDS011;39307;52.870;13.660;2024-01-15T05:38:00;2.27;;;1.40;;
53411;SDS011;39307;52.870;13.660;2024-01-15T05:40:27;3.08;;;1.70;;
53411;SDS011;39307;52.870;13.660;2024-01-15T05:42:54;3.80;;;1.80;;
53411;SDS011;39307;52.870;13.660;2024-01-15T05:45:21;3.70;;;1.75;;
53411;SDS011;39307;52.870;13.660;2024-01-15T05:47:47;4.05;;;1.77;;
53411;SDS011;39307;52.870;13.660;2024-01-15T05:50:14;3.42;;;1.80;;
53411;SDS011;39307;52.870;13.660;2024-01-15T05:52:41;3.58;;;1.50;;
53411;SDS011;39307;52.870;13.660;2024-01-15T05:55:08;3.65;;;1.77;;
53411;SDS011;39307;52.870;13.660;2024-01-15T05:57:35;3.22;;;1.70;;
53411;SDS011;39307;52.870;13.660;2024-01-15T06:00:03;3.95;;;1.90;;
53411;SDS011;39307;52.870;13.660;2024-01-15T06:02:31;2.65;;;1.58;;
53411;SDS011;39307;52.870;13.660;2024-01-15T06:04:57;3.85;;;1.73;;
53411;SDS011;39307;52.870;13.660;2024-01-15T06:07:24;3.72;;;1.60;;
53411;SDS011;39307;52.870;13.660;2024-01-15T06:09:51;3.65;;;1.75;;
53411;SDS011;39307;52.870;13.660;2024-01-15T06:12:18;2.95;;;1.65;;
53411;SDS011;39307;52.870;13.660;2024-01-15T06:14:45;4.50;;;2.00;;
53411;SDS011;39307;52.870;13.660;2024-01-15T06:17:12;3.63;;;1.80;;
53411;SDS011;39307;52.870;13.660;2024-01-15T06:19:39;4.13;;;1.73;;
53411;SDS011;39307;52.870;13.660;2024-01-15T06:22:06;3.65;;;1.73;;
53411;SDS011;39307;52.870;13.660;2024-01-15T06:24:33;2.78;;;1.58;;
53411;SDS011;39307;52.870;13.660;2024-01-15T06:27:00;3.83;;;1.88;;
53411;SDS011;39307;52.870;13.660;2024-01-15T06:29:27;3.58;;;1.60;;
53411;SDS011;39307;52.870;13.660;2024-01-15T06:31:54;3.75;;;1.70;;
53411;SDS011;39307;52.870;13.660;2024-01-15T06:34:21;3.55;;;1.90;;
53411;SDS011;39307;52.870;13.660;2024-01-15T06:36:48;3.75;;;1.60;;
53411;SDS011;39307;52.870;13.660;2024-01-15T06:39:15;3.58;;;1.60;;
53411;SDS011;39307;52.870;13.660;2024-01-15T06:41:42;3.13;;;1.52;;
53411;SDS011;39307;52.870;13.660;2024-01-15T06:44:11;3.90;;;1.75;;
53411;SDS011;39307;52.870;13.660;2024-01-15T06:46:42;3.58;;;1.60;;
53411;SDS011;39307;52.870;13.660;2024-01-15T06:49:10;3.35;;;1.70;;
53411;SDS011;39307;52.870;13.660;2024-01-15T06:51:37;4.80;;;1.75;;
53411;SDS011;39307;52.870;13.660;2024-01-15T06:54:04;3.40;;;1.67;;
53411;SDS011;39307;52.870;13.660;2024-01-15T06:56:31;3.70;;;1.60;;
53411;SDS011;39307;52.870;13.660;2024-01-15T06:58:59;3.13;;;1.48;;
53411;SDS011;39307;52.870;13.660;2024-01-15T07:01:25;3.10;;;1.65;;
53411;SDS011;39307;52.870;13.660;2024-01-15T07:03:52;3.60;;;1.58;;
53411;SDS011;39307;52.870;13.660;2024-01-15T07:06:19;4.40;;;1.90;;
53411;SDS011;39307;52.870;13.660;2024-01-15T07:08:46;3.58;;;1.75;;
53411;SDS011;39307;52.870;13.660;2024-01-15T07:11:14;4.00;;;1.50;;
53411;SDS011;39307;52.870;13.660;2024-01-15T07:13:41;3.90;;;1.70;;
53411;SDS011;39307;52.870;13.660;2024-01-15T07:16:08;2.60;;;1.20;;
53411;SDS011;39307;52.870;13.660;2024-01-15T07:18:35;2.50;;;1.20;;
53411;SDS011;39307;52.870;13.660;2024-01-15T07:21:02;2.80;;;1.20;;
53411;SDS011;39307;52.870;13.660;2024-01-15T07:23:30;2.53;;;1.02;;
53411;SDS011;39307;52.870;13.660;2024-01-15T07:25:57;2.50;;;0.90;;
53411;SDS011;39307;52.870;13.660;2024-01-15T07:28:24;3.10;;;1.30;;
53411;SDS011;39307;52.870;13.660;2024-01-15T07:30:51;2.63;;;1.25;;
53411;SDS011;39307;52.870;13.660;2024-01-15T07:33:18;3.13;;;1.17;;
53411;SDS011;39307;52.870;13.660;2024-01-15T07:35:45;3.38;;;1.40;;
53411;SDS011;39307;52.870;13.660;2024-01-15T07:38:12;3.58;;;1.42;;
53411;SDS011;39307;52.870;13.660;2024-01-15T07:40:39;2.40;;;1.20;;
53411;SDS011;39307;52.870;13.660;2024-01-15T07:43:06;3.08;;;1.30;;
53411;SDS011;39307;52.870;13.660;2024-01-15T07:45:32;3.13;;;1.20;;
53411;SDS011;39307;52.870;13.660;2024-01-15T07:47:59;2.38;;;1.20;;
53411;SDS011;39307;52.870;13.660;2024-01-15T07:50:26;2.75;;;1.23;;
53411;SDS011;39307;52.870;13.660;2024-01-15T07:52:53;2.67;;;1.13;;
53411;SDS011;39307;52.870;13.660;2024-01-15T07:55:20;2.58;;;1.10;;
53411;SDS011;39307;52.870;13.660;2024-01-15T07:57:47;2.67;;;1.10;;
53411;SDS011;39307;52.870;13.660;2024-01-15T08:00:14;2.47;;;1.00;;
53411;SDS011;39307;52.870;13.660;2024-01-15T08:02:42;3.05;;;1.13;;
53411;SDS011;39307;52.870;13.660;2024-01-15T08:05:08;3.17;;;1.30;;
53411;SDS011;39307;52.870;13.660;2024-01-15T08:07:35;3.25;;;1.20;;
53411;SDS011;39307;52.870;13.660;2024-01-15T08:10:02;3.40;;;1.23;;
53411;SDS011;39307;52.870;13.660;2024-01-15T08:12:29;3.13;;;1.30;;
53411;SDS011;39307;52.870;13.660;2024-01-15T08:14:56;3.53;;;1.30;;
53411;SDS011;39307;52.870;13.660;2024-01-15T08:17:23;2.63;;;1.10;;
53411;SDS011;39307;52.870;13.660;2024-01-15T08:19:50;3.07;;;1.27;;
53411;SDS011;39307;52.870;13.660;2024-01-15T08:22:17;3.30;;;1.20;;
53411;SDS011;39307;52.870;13.660;2024-01-15T08:24:44;3.05;;;1.15;;
53411;SDS011;39307;52.870;13.660;2024-01-15T08:27:10;2.75;;;1.13;;
53411;SDS011;39307;52.870;13.660;2024-01-15T08:29:37;3.90;;;1.30;;
53411;SDS011;39307;52.870;13.660;2024-01-15T08:32:04;2.58;;;1.10;;
53411;SDS011;39307;52.870;13.660;2024-01-15T08:34:31;3.33;;;1.33;;
53411;SDS011;39307;52.870;13.660;2024-01-15T08:36:58;2.75;;;1.10;;
53411;SDS011;39307;52.870;13.660;2024-01-15T08:39:25;2.72;;;1.23;;
53411;SDS011;39307;52.870;13.660;2024-01-15T08:41:52;2.87;;;1.20;;
53411;SDS011;39307;52.870;13.660;2024-01-15T08:44:19;3.55;;;1.20;;
53411;SDS011;39307;52.870;13.660;2024-01-15T08:46:45;3.38;;;1.25;;
53411;SDS011;39307;52.870;13.660;2024-01-15T08:49:12;3.33;;;1.27;;
53411;SDS011;39307;52.870;13.660;2024-01-15T08:51:39;2.95;;;1.17;;
53411;SDS011;39307;52.870;13.660;2024-01-15T08:54:06;3.33;;;1.10;;
53411;SDS011;39307;52.870;13.660;2024-01-15T08:56:33;3.40;;;1.20;;
53411;SDS011;39307;52.870;13.660;2024-01-15T08:59:00;3.03;;;1.10;;
53411;SDS011;39307;52.870;13.660;2024-01-15T09:01:27;2.97;;;1.20;;
53411;SDS011;39307;52.870;13.660;2024-01-15T09:03:53;3.53;;;1.30;;
53411;SDS011;39307;52.870;13.660;2024-01-15T09:06:20;2.97;;;1.10;;
53411;SDS011;39307;52.870;13.660;2024-01-15T09:08:47;3.10;;;1.17;;
53411;SDS011;39307;52.870;13.660;2024-01-15T09:11:14;4.28;;;1.50;;
53411;SDS011;39307;52.870;13.660;2024-01-15T09:13:41;2.53;;;1.00;;
53411;SDS011;39307;52.870;13.660;2024-01-15T09:16:09;3.42;;;1.35;;
53411;SDS011;39307;52.870;13.660;2024-01-15T09:18:35;2.58;;;1.13;;
53411;SDS011;39307;52.870;13.660;2024-01-15T09:21:03;3.73;;;1.10;;
53411;SDS011;39307;52.870;13.660;2024-01-15T09:23:30;3.03;;;1.17;;
53411;SDS011;39307;52.870;13.660;2024-01-15T09:25:56;3.63;;;1.30;;
53411;SDS011;39307;52.870;13.660;2024-01-15T09:28:23;3.35;;;1.20;;
53411;SDS011;39307;52.870;13.660;2024-01-15T09:30:50;4.00;;;1.42;;
53411;SDS011;39307;52.870;13.660;2024-01-15T09:33:17;4.05;;;1.25;;
53411;SDS011;39307;52.870;13.660;2024-01-15T09:35:44;4.20;;;1.30;;
53411;SDS011;39307;52.870;13.660;2024-01-15T09:38:11;3.35;;;1.17;;
53411;SDS011;39307;52.870;13.660;2024-01-15T09:40:38;2.33;;;1.07;;
53411;SDS011;39307;52.870;13.660;2024-01-15T09:43:10;2.50;;;0.90;;
53411;SDS011;39307;52.870;13.660;2024-01-15T09:45:38;2.20;;;0.93;;
53411;SDS011;39307;52.870;13.660;2024-01-15T09:48:06;2.63;;;0.82;;
53411;SDS011;39307;52.870;13.660;2024-01-15T09:50:33;3.10;;;1.10;;
53411;SDS011;39307;52.870;13.660;2024-01-15T09:53:00;2.97;;;1.10;;
53411;SDS011;39307;52.870;13.660;2024-01-15T09:55:28;2.42;;;1.00;;
53411;SDS011;39307;52.870;13.660;2024-01-15T09:57:56;3.28;;;1.20;;
53411;SDS011;39307;52.870;13.660;2024-01-15T10:00:25;2.50;;;1.10;;
53411;SDS011;39307;52.870;13.660;2024-01-15T10:02:53;3.22;;;1.25;;
53411;SDS011;39307;52.870;13.660;2024-01-15T10:05:20;2.88;;;1.10;;
53411;SDS011;39307;52.870;13.660;2024-01-15T10:07:47;3.58;;;1.05;;
53411;SDS011;39307;52.870;13.660;2024-01-15T10:10:15;2.92;;;1.10;;
53411;SDS011;39307;52.870;13.660;2024-01-15T10:12:42;2.97;;;1.10;;
53411;SDS011;39307;52.870;13.660;2024-01-15T10:15:09;3.88;;;1.20;;
53411;SDS011;39307;52.870;13.660;2024-01-15T10:17:36;3.20;;;1.20;;
53411;SDS011;39307;52.870;13.660;2024-01-15T10:20:08;2.97;;;1.17;;
53411;SDS011;39307;52.870;13.660;2024-01-15T10:22:39;2.63;;;1.00;;
53411;SDS011;39307;52.870;13.660;2024-01-15T10:25:09;3.22;;;1.10;;
53411;SDS011;39307;52.870;13.660;2024-01-15T10:27:40;2.80;;;1.13;;
53411;SDS011;39307;52.870;13.660;2024-01-15T10:30:08;3.00;;;1.10;;
53411;SDS011;39307;52.870;13.660;2024-01-15T10:32:39;3.17;;;1.02;;
53411;SDS011;39307;52.870;13.660;2024-01-15T10:35:06;3.83;;;1.50;;
53411;SDS011;39307;52.870;13.660;2024-01-15T10:37:33;3.50;;;1.20;;
53411;SDS011;39307;52.870;13.660;2024-01-15T10:40:03;3.13;;;1.20;;
53411;SDS011;39307;52.870;13.660;2024-01-15T10:42:30;3.22;;;1.20;;
53411;SDS011;39307;52.870;13.660;2024-01-15T10:44:57;3.38;;;1.27;;
53411;SDS011;39307;52.870;13.660;2024-01-15T10:47:24;4.18;;;1.40;;
53411;SDS011;39307;52.870;13.660;2024-01-15T10:49:51;4.50;;;1.35;;
53411;SDS011;39307;52.870;13.660;2024-01-15T10:52:18;4.03;;;1.20;;
53411;SDS011;39307;52.870;13.660;2024-01-15T10:54:45;3.15;;;1.23;;
53411;SDS011;39307;52.870;13.660;2024-01-15T10:57:13;3.20;;;1.05;;
53411;SDS011;39307;52.870;13.660;2024-01-15T10:59:42;3.72;;;1.20;;
53411;SDS011;39307;52.870;13.660;2024-01-15T11:02:09;3.75;;;1.13;;
53411;SDS011;39307;52.870;13.660;2024-01-15T11:04:36;3.87;;;1.20;;
53411;SDS011;39307;52.870;13.660;2024-01-15T11:07:03;3.43;;;1.13;;
53411;SDS011;39307;52.870;13.660;2024-01-15T11:09:32;3.80;;;1.20;;
53411;SDS011;39307;52.870;13.660;2024-01-15T11:12:10;3.75;;;1.20;;
53411;SDS011;39307;52.870;13.660;2024-01-15T11:14:44;3.35;;;1.33;;
53411;SDS011;39307;52.870;13.660;2024-01-15T11:17:14;3.95;;;1.30;;
53411;SDS011;39307;52.870;13.660;2024-01-15T11:19:43;4.13;;;1.20;;
53411;SDS011;39307;52.870;13.660;2024-01-15T11:24:57;4.20;;;1.30;;
53411;SDS011;39307;52.870;13.660;2024-01-15T11:27:45;3.93;;;1.33;;
53411;SDS011;39307;52.870;13.660;2024-01-15T11:30:15;3.55;;;1.17;;
53411;SDS011;39307;52.870;13.660;2024-01-15T11:32:41;3.27;;;1.23;;
53411;SDS011;39307;52.870;13.660;2024-01-15T11:35:09;4.40;;;1.23;;
53411;SDS011;39307;52.870;13.660;2024-01-15T11:40:19;4.50;;;1.50;;
53411;SDS011;39307;52.870;13.660;2024-01-15T11:42:58;4.22;;;1.35;;
53411;SDS011;39307;52.870;13.660;2024-01-15T11:45:25;3.90;;;1.40;;
53411;SDS011;39307;52.870;13.660;2024-01-15T11:48:00;3.40;;;1.10;;
53411;SDS011;39307;52.870;13.660;2024-01-15T11:50:45;3.60;;;1.30;;
53411;SDS011;39307;52.870;13.660;2024-01-15T11:53:21;3.92;;;1.10;;
53411;SDS011;39307;52.870;13.660;2024-01-15T11:56:22;4.65;;;1.40;;
53411;SDS011;39307;52.870;13.660;2024-01-15T11:58:49;3.88;;;1.15;;
53411;SDS011;39307;52.870;13.660;2024-01-15T12:01:16;3.60;;;1.35;;
53411;SDS011;39307;52.870;13.660;2024-01-15T12:03:44;3.30;;;1.08;;
53411;SDS011;39307;52.870;13.660;2024-01-15T12:06:13;2.85;;;1.00;;
53411;SDS011;39307;52.870;13.660;2024-01-15T12:08:40;2.55;;;1.00;;
53411;SDS011;39307;52.870;13.660;2024-01-15T12:11:09;3.72;;;1.15;;
53411;SDS011;39307;52.870;13.660;2024-01-15T12:13:39;3.13;;;1.00;;
53411;SDS011;39307;52.870;13.660;2024-01-15T12:16:06;3.43;;;1.17;;
53411;SDS011;39307;52.870;13.660;2024-01-15T12:18:33;3.10;;;1.10;;
53411;SDS011;39307;52.870;13.660;2024-01-15T12:21:00;2.72;;;1.02;;
53411;SDS011;39307;52.870;13.660;2024-01-15T12:23:27;2.53;;;0.82;;
53411;SDS011;39307;52.870;13.660;2024-01-15T12:25:54;3.42;;;1.08;;
53411;SDS011;39307;52.870;13.660;2024-01-15T12:28:21;3.50;;;1.00;;
53411;SDS011;39307;52.870;13.660;2024-01-15T12:30:48;3.17;;;1.00;;
53411;SDS011;39307;52.870;13.660;2024-01-15T12:33:17;2.35;;;0.95;;
53411;SDS011;39307;52.870;13.660;2024-01-15T12:35:45;3.88;;;1.25;;
53411;SDS011;39307;52.870;13.660;2024-01-15T12:38:11;3.63;;;1.20;;
53411;SDS011;39307;52.870;13.660;2024-01-15T12:40:38;2.83;;;1.10;;
53411;SDS011;39307;52.870;13.660;2024-01-15T12:43:06;3.35;;;1.00;;
53411;SDS011;39307;52.870;13.660;2024-01-15T12:45:33;3.05;;;1.00;;
53411;SDS011;39307;52.870;13.660;2024-01-15T12:48:00;3.00;;;1.00;;
53411;SDS011;39307;52.870;13.660;2024-01-15T12:50:27;3.35;;;1.10;;
53411;SDS011;39307;52.870;13.660;2024-01-15T12:52:54;3.95;;;1.17;;
53411;SDS011;39307;52.870;13.660;2024-01-15T12:55:21;2.72;;;1.00;;
53411;SDS011;39307;52.870;13.660;2024-01-15T12:57:47;2.70;;;0.90;;
53411;SDS011;39307;52.870;13.660;2024-01-15T13:00:16;3.53;;;1.00;;
53411;SDS011;39307;52.870;13.660;2024-01-15T13:02:42;3.13;;;1.00;;
53411;SDS011;39307;52.870;13.660;2024-01-15T13:05:10;2.95;;;1.08;;
53411;SDS011;39307;52.870;13.660;2024-01-15T13:07:37;2.45;;;0.90;;
53411;SDS011;39307;52.870;13.660;2024-01-15T13:10:05;2.40;;;1.00;;
53411;SDS011;39307;52.870;13.660;2024-01-15T13:12:33;3.53;;;1.00;;
53411;SDS011;39307;52.870;13.660;2024-01-15T13:15:00;3.47;;;1.10;;
53411;SDS011;39307;52.870;13.660;2024-01-15T13:17:28;3.13;;;1.05;;
53411;SDS011;39307;52.870;13.660;2024-01-15T13:19:55;3.58;;;1.10;;
53411;SDS011;39307;52.870;13.660;2024-01-15T13:22:22;3.10;;;1.00;;
53411;SDS011;39307;52.870;13.660;2024-01-15T13:24:49;3.40;;;1.10;;
53411;SDS011;39307;52.870;13.660;2024-01-15T13:27:16;2.65;;;0.90;;
53411;SDS011;39307;52.870;13.660;2024-01-15T13:29:42;2.85;;;0.93;;
53411;SDS011;39307;52.870;13.660;2024-01-15T13:32:09;3.30;;;1.00;;
53411;SDS011;39307;52.870;13.660;2024-01-15T13:34:49;2.88;;;0.90;;
53411;SDS011;39307;52.870;13.660;2024-01-15T13:37:16;2.63;;;0.80;;
53411;SDS011;39307;52.870;13.660;2024-01-15T13:39:43;2.80;;;1.00;;
53411;SDS011;39307;52.870;13.660;2024-01-15T13:42:10;3.80;;;1.10;;
53411;SDS011;39307;52.870;13.660;2024-01-15T13:44:37;2.72;;;1.08;;
53411;SDS011;39307;52.870;13.660;2024-01-15T13:47:04;2.70;;;0.90;;
53411;SDS011;39307;52.870;13.660;2024-01-15T13:49:30;3.50;;;1.20;;
53411;SDS011;39307;52.870;13.660;2024-01-15T13:51:57;3.72;;;1.17;;
53411;SDS011;39307;52.870;13.660;2024-01-15T13:54:24;2.83;;;0.75;;
53411;SDS011;39307;52.870;13.660;2024-01-15T13:56:51;3.13;;;1.00;;
53411;SDS011;39307;52.870;13.660;2024-01-15T13:59:18;2.75;;;0.90;;
53411;SDS011;39307;52.870;13.660;2024-01-15T14:01:44;3.38;;;1.10;;
53411;SDS011;39307;52.870;13.660;2024-01-15T14:04:11;3.47;;;1.13;;
53411;SDS011;39307;52.870;13.660;2024-01-15T14:06:39;2.88;;;1.10;;
53411;SDS011;39307;52.870;13.660;2024-01-15T14:09:05;2.45;;;0.95;;
53411;SDS011;39307;52.870;13.660;2024-01-15T14:11:32;3.13;;;1.10;;
53411;SDS011;39307;52.870;13.660;2024-01-15T14:13:59;3.45;;;1.10;;
53411;SDS011;39307;52.870;13.660;2024-01-15T14:16:26;3.30;;;1.00;;
53411;SDS011;39307;52.870;13.660;2024-01-15T14:18:53;4.03;;;1.10;;
53411;SDS011;39307;52.870;13.660;2024-01-15T14:21:20;2.70;;;1.00;;
53411;SDS011;39307;52.870;13.660;2024-01-15T14:23:47;2.58;;;1.10;;
53411;SDS011;39307;52.870;13.660;2024-01-15T14:26:13;3.25;;;1.08;;
53411;SDS011;39307;52.870;13.660;2024-01-15T14:28:40;2.53;;;0.90;;
53411;SDS011;39307;52.870;13.660;2024-01-15T14:31:07;2.70;;;0.77;;
53411;SDS011;39307;52.870;13.660;2024-01-15T14:33:34;2.78;;;0.90;;
53411;SDS011;39307;52.870;13.660;2024-01-15T14:36:01;2.05;;;0.70;;
53411;SDS011;39307;52.870;13.660;2024-01-15T14:38:28;1.73;;;0.70;;
53411;SDS011;39307;52.870;13.660;2024-01-15T14:40:54;2.50;;;0.80;;